Aérodrome :







RETROUVEZ-NOUS SUR...

 
LOGIN :

S'inscrire | Disclaimer

   EN    FR    IT 

 









Légende :    VFR   VFR Marginal   IFR   IFR Intensif   IFR Très Intensif
Visi : 
Plafond : 
>= 8 km
>= 3000ft
5 à 8 km
1000 à 3000 ft
1500m à 5 km
500 à 1000 ft
800 à 1500m
200 à 500 ft
< 800m
< 200 ft
Symboles :   Orages  Brouillard  Fortes neiges  Fortes précipitations  Vent > 20 kt






- Altitude de l'aérodrome : 285 ft
- Code IATA : ALB


KALB - Albany International

DERNIER METAR :
  • 221551Z 28010G19KT 10SM FEW030 FEW250 04/M10 A3022 RMK AO2 SLP235 T00391100

METARs EXPIRÉS :
  • 221451Z 27011G18KT 10SM SCT030 SCT250 02/M11 A3023 RMK AO2 SLP239 T00221111 50002
  • 221351Z 17003KT 10SM FEW040 FEW200 SCT250 00/M12 A3023 RMK AO2 SLP241 T00001122

TAF KALB
Valide du 22 à 14h jusqu'au 23 à 12h UTC


221410Z 2214/2312 18005KT P6SM FEW040 SCT200 WS020/28035KT
FM221500 27012G22KT P6SM SCT040
FM230000 21005KT P6SM SKC



MET'MAP, la Météo Aéronautique d'un coup d'oeil ! - Copyright ORBIFLY Décembre 2007 - Disclaimer

ORBIFLY MET'MAP TEAM :

Programmation & Développement : Alexandra Zaïnal
Sur une idée originale de : Baudouin d'Aumeries
Assistance à la programmation : Marc-Olivier Méhu
Soutien technique & logistique : Manuel Goepfert

Contact : metmap@orbifly.com




SOURCES & CREDITS :

   NOAA